sensor_id;sensor_type;location;lat;lon;timestamp;P1;durP1;ratioP1;P2;durP2;ratioP2
10096;SDS011;5087;42.662;23.466;2023-10-19T00:00:48;0.10;;;0.10;;
10096;SDS011;5087;42.662;23.466;2023-10-19T00:03:16;0.10;;;0.10;;
10096;SDS011;5087;42.662;23.466;2023-10-19T00:05:44;0.10;;;0.10;;
10096;SDS011;5087;42.662;23.466;2023-10-19T00:08:13;0.10;;;0.10;;
10096;SDS011;5087;42.662;23.466;2023-10-19T00:10:46;0.10;;;0.10;;
10096;SDS011;5087;42.662;23.466;2023-10-19T00:13:21;0.10;;;0.10;;
10096;SDS011;5087;42.662;23.466;2023-10-19T00:15:48;0.10;;;0.10;;
10096;SDS011;5087;42.662;23.466;2023-10-19T00:18:17;0.10;;;0.10;;
10096;SDS011;5087;42.662;23.466;2023-10-19T00:20:49;0.10;;;0.10;;
10096;SDS011;5087;42.662;23.466;2023-10-19T00:23:18;0.10;;;0.10;;
10096;SDS011;5087;42.662;23.466;2023-10-19T00:25:55;0.10;;;0.10;;
10096;SDS011;5087;42.662;23.466;2023-10-19T00:28:23;0.10;;;0.10;;
10096;SDS011;5087;42.662;23.466;2023-10-19T00:30:52;0.10;;;0.10;;
10096;SDS011;5087;42.662;23.466;2023-10-19T00:33:24;0.10;;;0.10;;
10096;SDS011;5087;42.662;23.466;2023-10-19T00:35:54;0.10;;;0.10;;
10096;SDS011;5087;42.662;23.466;2023-10-19T00:38:31;0.00;;;0.00;;
10096;SDS011;5087;42.662;23.466;2023-10-19T00:41:18;0.10;;;0.10;;
10096;SDS011;5087;42.662;23.466;2023-10-19T00:43:51;0.00;;;0.00;;
10096;SDS011;5087;42.662;23.466;2023-10-19T00:46:26;0.10;;;0.10;;
10096;SDS011;5087;42.662;23.466;2023-10-19T00:48:59;0.10;;;0.10;;
10096;SDS011;5087;42.662;23.466;2023-10-19T00:51:29;0.10;;;0.10;;
10096;SDS011;5087;42.662;23.466;2023-10-19T00:54:16;0.00;;;0.00;;
10096;SDS011;5087;42.662;23.466;2023-10-19T00:56:51;0.00;;;0.00;;
10096;SDS011;5087;42.662;23.466;2023-10-19T00:59:23;0.00;;;0.00;;
10096;SDS011;5087;42.662;23.466;2023-10-19T01:01:55;0.10;;;0.10;;
10096;SDS011;5087;42.662;23.466;2023-10-19T01:04:42;0.00;;;0.00;;
10096;SDS011;5087;42.662;23.466;2023-10-19T01:07:10;0.10;;;0.10;;
10096;SDS011;5087;42.662;23.466;2023-10-19T01:09:41;0.10;;;0.10;;
10096;SDS011;5087;42.662;23.466;2023-10-19T01:12:09;0.10;;;0.10;;
10096;SDS011;5087;42.662;23.466;2023-10-19T01:15:08;0.20;;;0.20;;
10096;SDS011;5087;42.662;23.466;2023-10-19T01:17:41;0.20;;;0.20;;
10096;SDS011;5087;42.662;23.466;2023-10-19T01:20:10;0.20;;;0.20;;
10096;SDS011;5087;42.662;23.466;2023-10-19T01:22:48;0.20;;;0.20;;
10096;SDS011;5087;42.662;23.466;2023-10-19T01:25:18;0.20;;;0.20;;
10096;SDS011;5087;42.662;23.466;2023-10-19T01:27:51;0.20;;;0.20;;
10096;SDS011;5087;42.662;23.466;2023-10-19T01:30:23;0.20;;;0.20;;
10096;SDS011;5087;42.662;23.466;2023-10-19T01:32:55;0.20;;;0.20;;
10096;SDS011;5087;42.662;23.466;2023-10-19T01:35:23;0.20;;;0.20;;
10096;SDS011;5087;42.662;23.466;2023-10-19T01:37:57;0.20;;;0.20;;
10096;SDS011;5087;42.662;23.466;2023-10-19T01:40:23;0.10;;;0.10;;
10096;SDS011;5087;42.662;23.466;2023-10-19T01:42:50;0.20;;;0.20;;
10096;SDS011;5087;42.662;23.466;2023-10-19T01:45:19;0.20;;;0.20;;
10096;SDS011;5087;42.662;23.466;2023-10-19T01:47:46;0.10;;;0.10;;
10096;SDS011;5087;42.662;23.466;2023-10-19T01:50:13;0.20;;;0.20;;
10096;SDS011;5087;42.662;23.466;2023-10-19T01:52:46;0.10;;;0.10;;
10096;SDS011;5087;42.662;23.466;2023-10-19T01:55:14;0.10;;;0.10;;
10096;SDS011;5087;42.662;23.466;2023-10-19T01:57:49;0.10;;;0.10;;
10096;SDS011;5087;42.662;23.466;2023-10-19T02:00:16;0.20;;;0.20;;
10096;SDS011;5087;42.662;23.466;2023-10-19T02:02:48;0.10;;;0.10;;
10096;SDS011;5087;42.662;23.466;2023-10-19T02:05:15;0.10;;;0.10;;
10096;SDS011;5087;42.662;23.466;2023-10-19T02:07:44;0.10;;;0.10;;
10096;SDS011;5087;42.662;23.466;2023-10-19T02:10:10;0.10;;;0.10;;
10096;SDS011;5087;42.662;23.466;2023-10-19T02:12:41;0.20;;;0.20;;
10096;SDS011;5087;42.662;23.466;2023-10-19T02:15:07;0.30;;;0.30;;
10096;SDS011;5087;42.662;23.466;2023-10-19T02:17:35;0.20;;;0.20;;
10096;SDS011;5087;42.662;23.466;2023-10-19T02:20:10;0.30;;;0.30;;
10096;SDS011;5087;42.662;23.466;2023-10-19T02:22:42;0.20;;;0.20;;
10096;SDS011;5087;42.662;23.466;2023-10-19T02:25:13;0.20;;;0.20;;
10096;SDS011;5087;42.662;23.466;2023-10-19T02:27:41;0.30;;;0.30;;
10096;SDS011;5087;42.662;23.466;2023-10-19T02:30:10;0.30;;;0.30;;
10096;SDS011;5087;42.662;23.466;2023-10-19T02:32:38;0.30;;;0.30;;
10096;SDS011;5087;42.662;23.466;2023-10-19T02:35:08;0.30;;;0.30;;
10096;SDS011;5087;42.662;23.466;2023-10-19T02:37:35;0.40;;;0.40;;
10096;SDS011;5087;42.662;23.466;2023-10-19T02:40:06;0.30;;;0.30;;
10096;SDS011;5087;42.662;23.466;2023-10-19T02:42:38;0.40;;;0.40;;
10096;SDS011;5087;42.662;23.466;2023-10-19T02:45:07;0.30;;;0.30;;
10096;SDS011;5087;42.662;23.466;2023-10-19T02:47:33;0.20;;;0.20;;
10096;SDS011;5087;42.662;23.466;2023-10-19T02:50:01;0.10;;;0.10;;
10096;SDS011;5087;42.662;23.466;2023-10-19T02:52:35;0.10;;;0.10;;
10096;SDS011;5087;42.662;23.466;2023-10-19T02:55:03;0.10;;;0.10;;
10096;SDS011;5087;42.662;23.466;2023-10-19T02:57:30;0.10;;;0.10;;
10096;SDS011;5087;42.662;23.466;2023-10-19T02:59:57;0.10;;;0.10;;
10096;SDS011;5087;42.662;23.466;2023-10-19T03:02:26;0.10;;;0.10;;
10096;SDS011;5087;42.662;23.466;2023-10-19T03:04:53;0.10;;;0.10;;
10096;SDS011;5087;42.662;23.466;2023-10-19T03:07:20;0.10;;;0.10;;
10096;SDS011;5087;42.662;23.466;2023-10-19T03:09:47;0.10;;;0.10;;
10096;SDS011;5087;42.662;23.466;2023-10-19T03:12:19;0.10;;;0.10;;
10096;SDS011;5087;42.662;23.466;2023-10-19T03:14:51;0.10;;;0.10;;
10096;SDS011;5087;42.662;23.466;2023-10-19T03:17:17;0.10;;;0.10;;
10096;SDS011;5087;42.662;23.466;2023-10-19T03:19:46;0.10;;;0.10;;
10096;SDS011;5087;42.662;23.466;2023-10-19T03:22:13;0.00;;;0.00;;
10096;SDS011;5087;42.662;23.466;2023-10-19T03:24:42;0.20;;;0.20;;
10096;SDS011;5087;42.662;23.466;2023-10-19T03:27:09;0.20;;;0.20;;
10096;SDS011;5087;42.662;23.466;2023-10-19T03:29:44;0.20;;;0.20;;
10096;SDS011;5087;42.662;23.466;2023-10-19T03:32:15;0.20;;;0.20;;
10096;SDS011;5087;42.662;23.466;2023-10-19T03:34:50;0.10;;;0.10;;
10096;SDS011;5087;42.662;23.466;2023-10-19T03:37:21;0.20;;;0.20;;
10096;SDS011;5087;42.662;23.466;2023-10-19T03:39:51;0.30;;;0.30;;
10096;SDS011;5087;42.662;23.466;2023-10-19T03:42:22;0.20;;;0.20;;
10096;SDS011;5087;42.662;23.466;2023-10-19T03:44:52;0.23;;;0.23;;
10096;SDS011;5087;42.662;23.466;2023-10-19T03:47:23;0.30;;;0.30;;
10096;SDS011;5087;42.662;23.466;2023-10-19T03:49:58;0.20;;;0.20;;
10096;SDS011;5087;42.662;23.466;2023-10-19T03:52:35;0.20;;;0.20;;
10096;SDS011;5087;42.662;23.466;2023-10-19T03:55:03;0.20;;;0.20;;
10096;SDS011;5087;42.662;23.466;2023-10-19T03:57:36;0.20;;;0.20;;
10096;SDS011;5087;42.662;23.466;2023-10-19T04:00:07;0.10;;;0.10;;
10096;SDS011;5087;42.662;23.466;2023-10-19T04:02:38;0.10;;;0.10;;
10096;SDS011;5087;42.662;23.466;2023-10-19T04:05:09;0.20;;;0.20;;
10096;SDS011;5087;42.662;23.466;2023-10-19T04:07:45;0.10;;;0.10;;
10096;SDS011;5087;42.662;23.466;2023-10-19T04:10:15;0.10;;;0.10;;
10096;SDS011;5087;42.662;23.466;2023-10-19T04:12:58;0.10;;;0.10;;
10096;SDS011;5087;42.662;23.466;2023-10-19T04:15:26;0.10;;;0.10;;
10096;SDS011;5087;42.662;23.466;2023-10-19T04:17:58;0.10;;;0.10;;
10096;SDS011;5087;42.662;23.466;2023-10-19T04:20:27;0.10;;;0.10;;
10096;SDS011;5087;42.662;23.466;2023-10-19T04:23:07;0.10;;;0.10;;
10096;SDS011;5087;42.662;23.466;2023-10-19T04:25:36;0.10;;;0.10;;
10096;SDS011;5087;42.662;23.466;2023-10-19T04:28:04;0.10;;;0.10;;
10096;SDS011;5087;42.662;23.466;2023-10-19T04:30:32;0.10;;;0.10;;
10096;SDS011;5087;42.662;23.466;2023-10-19T04:33:03;0.00;;;0.00;;
10096;SDS011;5087;42.662;23.466;2023-10-19T04:35:36;0.10;;;0.10;;
10096;SDS011;5087;42.662;23.466;2023-10-19T04:38:06;0.00;;;0.00;;
10096;SDS011;5087;42.662;23.466;2023-10-19T04:40:33;0.00;;;0.00;;
10096;SDS011;5087;42.662;23.466;2023-10-19T04:43:03;0.10;;;0.10;;
10096;SDS011;5087;42.662;23.466;2023-10-19T04:45:30;0.00;;;0.00;;
10096;SDS011;5087;42.662;23.466;2023-10-19T04:48:00;0.00;;;0.00;;
10096;SDS011;5087;42.662;23.466;2023-10-19T04:50:29;0.10;;;0.10;;
10096;SDS011;5087;42.662;23.466;2023-10-19T04:52:58;0.10;;;0.10;;
10096;SDS011;5087;42.662;23.466;2023-10-19T04:55:25;0.00;;;0.00;;
10096;SDS011;5087;42.662;23.466;2023-10-19T04:57:53;0.00;;;0.00;;
10096;SDS011;5087;42.662;23.466;2023-10-19T05:00:21;0.00;;;0.00;;
10096;SDS011;5087;42.662;23.466;2023-10-19T05:02:49;0.00;;;0.00;;
10096;SDS011;5087;42.662;23.466;2023-10-19T05:05:17;0.00;;;0.00;;
10096;SDS011;5087;42.662;23.466;2023-10-19T05:07:45;0.00;;;0.00;;
10096;SDS011;5087;42.662;23.466;2023-10-19T05:10:14;0.00;;;0.00;;
10096;SDS011;5087;42.662;23.466;2023-10-19T05:12:41;0.00;;;0.00;;
10096;SDS011;5087;42.662;23.466;2023-10-19T05:15:08;0.00;;;0.00;;
10096;SDS011;5087;42.662;23.466;2023-10-19T05:17:36;0.00;;;0.00;;
10096;SDS011;5087;42.662;23.466;2023-10-19T05:20:07;0.00;;;0.00;;
10096;SDS011;5087;42.662;23.466;2023-10-19T05:22:35;0.00;;;0.00;;
10096;SDS011;5087;42.662;23.466;2023-10-19T05:25:02;0.00;;;0.00;;
10096;SDS011;5087;42.662;23.466;2023-10-19T05:27:34;0.10;;;0.10;;
10096;SDS011;5087;42.662;23.466;2023-10-19T05:30:03;0.10;;;0.10;;
10096;SDS011;5087;42.662;23.466;2023-10-19T05:32:31;0.10;;;0.10;;
10096;SDS011;5087;42.662;23.466;2023-10-19T05:34:58;0.00;;;0.00;;
10096;SDS011;5087;42.662;23.466;2023-10-19T05:37:30;0.00;;;0.00;;
10096;SDS011;5087;42.662;23.466;2023-10-19T05:39:57;0.00;;;0.00;;
10096;SDS011;5087;42.662;23.466;2023-10-19T05:42:24;0.00;;;0.00;;
10096;SDS011;5087;42.662;23.466;2023-10-19T05:44:58;0.00;;;0.00;;
10096;SDS011;5087;42.662;23.466;2023-10-19T05:47:28;0.07;;;0.07;;
10096;SDS011;5087;42.662;23.466;2023-10-19T05:49:55;0.00;;;0.00;;
10096;SDS011;5087;42.662;23.466;2023-10-19T05:52:26;0.00;;;0.00;;
10096;SDS011;5087;42.662;23.466;2023-10-19T05:54:56;0.00;;;0.00;;
10096;SDS011;5087;42.662;23.466;2023-10-19T05:57:25;0.10;;;0.10;;
10096;SDS011;5087;42.662;23.466;2023-10-19T05:59:52;0.10;;;0.10;;
10096;SDS011;5087;42.662;23.466;2023-10-19T06:02:22;0.10;;;0.10;;
10096;SDS011;5087;42.662;23.466;2023-10-19T06:04:50;0.10;;;0.10;;
10096;SDS011;5087;42.662;23.466;2023-10-19T06:07:17;0.10;;;0.10;;
10096;SDS011;5087;42.662;23.466;2023-10-19T06:09:46;0.10;;;0.10;;
10096;SDS011;5087;42.662;23.466;2023-10-19T06:12:13;0.10;;;0.10;;
10096;SDS011;5087;42.662;23.466;2023-10-19T06:14:40;0.10;;;0.10;;
10096;SDS011;5087;42.662;23.466;2023-10-19T06:17:08;0.10;;;0.10;;
10096;SDS011;5087;42.662;23.466;2023-10-19T06:19:37;0.10;;;0.10;;
10096;SDS011;5087;42.662;23.466;2023-10-19T06:22:04;0.10;;;0.10;;
10096;SDS011;5087;42.662;23.466;2023-10-19T06:24:33;0.00;;;0.00;;
10096;SDS011;5087;42.662;23.466;2023-10-19T06:27:02;0.00;;;0.00;;
10096;SDS011;5087;42.662;23.466;2023-10-19T06:29:30;0.00;;;0.00;;
10096;SDS011;5087;42.662;23.466;2023-10-19T06:31:57;0.00;;;0.00;;
10096;SDS011;5087;42.662;23.466;2023-10-19T06:34:29;0.00;;;0.00;;
10096;SDS011;5087;42.662;23.466;2023-10-19T06:37:00;0.00;;;0.00;;
10096;SDS011;5087;42.662;23.466;2023-10-19T06:39:29;0.00;;;0.00;;
10096;SDS011;5087;42.662;23.466;2023-10-19T06:41:56;0.00;;;0.00;;
10096;SDS011;5087;42.662;23.466;2023-10-19T06:44:24;0.00;;;0.00;;
10096;SDS011;5087;42.662;23.466;2023-10-19T06:46:52;0.00;;;0.00;;
10096;SDS011;5087;42.662;23.466;2023-10-19T06:49:19;0.00;;;0.00;;
10096;SDS011;5087;42.662;23.466;2023-10-19T06:51:46;0.00;;;0.00;;
10096;SDS011;5087;42.662;23.466;2023-10-19T06:54:15;0.00;;;0.00;;
10096;SDS011;5087;42.662;23.466;2023-10-19T06:56:43;0.00;;;0.00;;
10096;SDS011;5087;42.662;23.466;2023-10-19T06:59:11;0.00;;;0.00;;
10096;SDS011;5087;42.662;23.466;2023-10-19T07:01:38;0.00;;;0.00;;
10096;SDS011;5087;42.662;23.466;2023-10-19T07:04:06;0.00;;;0.00;;
10096;SDS011;5087;42.662;23.466;2023-10-19T07:06:33;0.00;;;0.00;;
10096;SDS011;5087;42.662;23.466;2023-10-19T07:09:00;0.00;;;0.00;;
10096;SDS011;5087;42.662;23.466;2023-10-19T07:11:32;0.00;;;0.00;;
10096;SDS011;5087;42.662;23.466;2023-10-19T07:14:00;0.10;;;0.10;;
10096;SDS011;5087;42.662;23.466;2023-10-19T07:16:28;0.20;;;0.20;;
10096;SDS011;5087;42.662;23.466;2023-10-19T07:18:56;0.20;;;0.20;;
10096;SDS011;5087;42.662;23.466;2023-10-19T07:21:24;0.40;;;0.40;;
10096;SDS011;5087;42.662;23.466;2023-10-19T07:23:59;0.30;;;0.30;;
10096;SDS011;5087;42.662;23.466;2023-10-19T07:26:32;0.30;;;0.30;;
10096;SDS011;5087;42.662;23.466;2023-10-19T07:29:06;0.30;;;0.30;;
10096;SDS011;5087;42.662;23.466;2023-10-19T07:31:35;0.30;;;0.30;;
10096;SDS011;5087;42.662;23.466;2023-10-19T07:34:04;0.30;;;0.30;;
10096;SDS011;5087;42.662;23.466;2023-10-19T07:36:38;0.40;;;0.40;;
10096;SDS011;5087;42.662;23.466;2023-10-19T07:39:08;0.50;;;0.50;;
10096;SDS011;5087;42.662;23.466;2023-10-19T07:41:41;0.70;;;0.70;;
10096;SDS011;5087;42.662;23.466;2023-10-19T07:44:08;1.30;;;1.30;;
10096;SDS011;5087;42.662;23.466;2023-10-19T07:46:35;1.90;;;1.90;;
10096;SDS011;5087;42.662;23.466;2023-10-19T07:49:03;2.30;;;2.30;;
10096;SDS011;5087;42.662;23.466;2023-10-19T07:51:31;3.03;;;3.03;;
10096;SDS011;5087;42.662;23.466;2023-10-19T07:53:59;3.50;;;3.50;;
10096;SDS011;5087;42.662;23.466;2023-10-19T07:56:27;4.13;;;4.03;;
10096;SDS011;5087;42.662;23.466;2023-10-19T07:58:56;3.70;;;3.70;;
10096;SDS011;5087;42.662;23.466;2023-10-19T08:01:23;3.60;;;3.60;;
10096;SDS011;5087;42.662;23.466;2023-10-19T08:03:51;3.40;;;3.40;;
10096;SDS011;5087;42.662;23.466;2023-10-19T08:06:18;3.13;;;3.13;;
10096;SDS011;5087;42.662;23.466;2023-10-19T08:08:45;3.70;;;3.70;;
10096;SDS011;5087;42.662;23.466;2023-10-19T08:11:13;3.50;;;3.50;;
10096;SDS011;5087;42.662;23.466;2023-10-19T08:13:40;3.57;;;3.57;;
10096;SDS011;5087;42.662;23.466;2023-10-19T08:16:09;3.70;;;3.70;;
10096;SDS011;5087;42.662;23.466;2023-10-19T08:18:38;4.50;;;4.40;;
10096;SDS011;5087;42.662;23.466;2023-10-19T08:21:09;4.37;;;4.27;;
10096;SDS011;5087;42.662;23.466;2023-10-19T08:23:37;4.30;;;4.20;;
10096;SDS011;5087;42.662;23.466;2023-10-19T08:26:06;4.30;;;4.20;;
10096;SDS011;5087;42.662;23.466;2023-10-19T08:28:33;4.50;;;4.40;;
10096;SDS011;5087;42.662;23.466;2023-10-19T08:31:02;4.37;;;4.27;;
10096;SDS011;5087;42.662;23.466;2023-10-19T08:33:32;3.20;;;3.20;;
10096;SDS011;5087;42.662;23.466;2023-10-19T08:36:04;3.27;;;3.27;;
10096;SDS011;5087;42.662;23.466;2023-10-19T08:38:32;3.50;;;3.50;;
10096;SDS011;5087;42.662;23.466;2023-10-19T08:41:00;3.73;;;3.73;;
10096;SDS011;5087;42.662;23.466;2023-10-19T08:43:28;3.17;;;3.17;;
10096;SDS011;5087;42.662;23.466;2023-10-19T08:45:59;2.87;;;2.87;;
10096;SDS011;5087;42.662;23.466;2023-10-19T08:48:27;2.53;;;2.53;;
10096;SDS011;5087;42.662;23.466;2023-10-19T08:50:57;1.90;;;1.90;;
10096;SDS011;5087;42.662;23.466;2023-10-19T08:53:29;2.20;;;2.20;;
10096;SDS011;5087;42.662;23.466;2023-10-19T08:55:57;2.10;;;2.10;;
10096;SDS011;5087;42.662;23.466;2023-10-19T08:58:26;1.90;;;1.90;;
10096;SDS011;5087;42.662;23.466;2023-10-19T09:00:53;1.30;;;1.30;;
10096;SDS011;5087;42.662;23.466;2023-10-19T09:03:21;0.97;;;0.97;;
10096;SDS011;5087;42.662;23.466;2023-10-19T09:05:49;0.80;;;0.80;;
10096;SDS011;5087;42.662;23.466;2023-10-19T09:08:18;1.00;;;1.00;;
10096;SDS011;5087;42.662;23.466;2023-10-19T09:10:47;0.90;;;0.90;;
10096;SDS011;5087;42.662;23.466;2023-10-19T09:13:17;0.80;;;0.80;;
10096;SDS011;5087;42.662;23.466;2023-10-19T09:15:45;0.70;;;0.70;;
10096;SDS011;5087;42.662;23.466;2023-10-19T09:18:14;0.70;;;0.70;;
10096;SDS011;5087;42.662;23.466;2023-10-19T09:20:47;0.60;;;0.60;;
10096;SDS011;5087;42.662;23.466;2023-10-19T09:23:29;0.60;;;0.60;;
10096;SDS011;5087;42.662;23.466;2023-10-19T09:25:56;0.70;;;0.70;;
10096;SDS011;5087;42.662;23.466;2023-10-19T09:28:28;0.60;;;0.60;;
10096;SDS011;5087;42.662;23.466;2023-10-19T09:31:01;0.50;;;0.50;;
10096;SDS011;5087;42.662;23.466;2023-10-19T09:33:30;0.50;;;0.50;;
10096;SDS011;5087;42.662;23.466;2023-10-19T09:36:00;0.50;;;0.50;;
10096;SDS011;5087;42.662;23.466;2023-10-19T09:38:31;0.40;;;0.40;;
10096;SDS011;5087;42.662;23.466;2023-10-19T09:40:59;0.50;;;0.50;;
10096;SDS011;5087;42.662;23.466;2023-10-19T09:43:30;0.70;;;0.70;;
10096;SDS011;5087;42.662;23.466;2023-10-19T09:46:05;0.90;;;0.90;;
10096;SDS011;5087;42.662;23.466;2023-10-19T09:48:35;1.00;;;1.00;;
10096;SDS011;5087;42.662;23.466;2023-10-19T09:51:07;1.00;;;1.00;;
10096;SDS011;5087;42.662;23.466;2023-10-19T09:53:37;0.90;;;0.90;;
10096;SDS011;5087;42.662;23.466;2023-10-19T09:56:06;0.87;;;0.87;;
10096;SDS011;5087;42.662;23.466;2023-10-19T09:58:47;0.87;;;0.87;;
10096;SDS011;5087;42.662;23.466;2023-10-19T10:01:18;0.80;;;0.80;;
10096;SDS011;5087;42.662;23.466;2023-10-19T10:03:48;0.70;;;0.70;;
10096;SDS011;5087;42.662;23.466;2023-10-19T10:06:17;0.70;;;0.70;;
10096;SDS011;5087;42.662;23.466;2023-10-19T10:08:56;0.80;;;0.80;;
10096;SDS011;5087;42.662;23.466;2023-10-19T10:11:28;0.90;;;0.90;;
10096;SDS011;5087;42.662;23.466;2023-10-19T10:13:57;1.00;;;1.00;;
10096;SDS011;5087;42.662;23.466;2023-10-19T10:16:26;1.10;;;1.10;;
10096;SDS011;5087;42.662;23.466;2023-10-19T10:18:54;1.10;;;1.10;;
10096;SDS011;5087;42.662;23.466;2023-10-19T10:21:26;1.00;;;1.00;;
10096;SDS011;5087;42.662;23.466;2023-10-19T10:24:00;0.87;;;0.87;;
10096;SDS011;5087;42.662;23.466;2023-10-19T10:26:31;0.90;;;0.90;;
10096;SDS011;5087;42.662;23.466;2023-10-19T10:29:21;0.97;;;0.97;;
10096;SDS011;5087;42.662;23.466;2023-10-19T10:31:52;1.00;;;1.00;;
10096;SDS011;5087;42.662;23.466;2023-10-19T10:37:09;0.50;;;0.50;;
10096;SDS011;5087;42.662;23.466;2023-10-19T10:39:47;0.50;;;0.50;;
10096;SDS011;5087;42.662;23.466;2023-10-19T10:42:16;0.43;;;0.43;;
10096;SDS011;5087;42.662;23.466;2023-10-19T10:44:44;0.40;;;0.40;;
10096;SDS011;5087;42.662;23.466;2023-10-19T10:47:16;0.40;;;0.40;;
10096;SDS011;5087;42.662;23.466;2023-10-19T10:49:49;0.50;;;0.50;;
10096;SDS011;5087;42.662;23.466;2023-10-19T10:52:26;0.50;;;0.50;;
10096;SDS011;5087;42.662;23.466;2023-10-19T10:54:56;0.40;;;0.40;;
10096;SDS011;5087;42.662;23.466;2023-10-19T10:57:23;0.30;;;0.30;;
10096;SDS011;5087;42.662;23.466;2023-10-19T11:00:03;0.40;;;0.40;;
10096;SDS011;5087;42.662;23.466;2023-10-19T11:02:33;0.30;;;0.30;;
10096;SDS011;5087;42.662;23.466;2023-10-19T11:05:01;0.30;;;0.30;;
10096;SDS011;5087;42.662;23.466;2023-10-19T11:07:29;0.30;;;0.30;;
10096;SDS011;5087;42.662;23.466;2023-10-19T11:09:58;0.30;;;0.30;;
10096;SDS011;5087;42.662;23.466;2023-10-19T11:12:27;0.30;;;0.30;;
10096;SDS011;5087;42.662;23.466;2023-10-19T11:14:54;0.33;;;0.33;;
10096;SDS011;5087;42.662;23.466;2023-10-19T11:17:26;0.30;;;0.30;;
10096;SDS011;5087;42.662;23.466;2023-10-19T11:19:57;0.40;;;0.40;;
10096;SDS011;5087;42.662;23.466;2023-10-19T11:22:26;0.40;;;0.40;;
10096;SDS011;5087;42.662;23.466;2023-10-19T11:25:00;0.40;;;0.40;;
10096;SDS011;5087;42.662;23.466;2023-10-19T11:27:47;0.40;;;0.40;;
10096;SDS011;5087;42.662;23.466;2023-10-19T11:30:22;0.40;;;0.40;;
10096;SDS011;5087;42.662;23.466;2023-10-19T11:32:50;0.37;;;0.37;;
10096;SDS011;5087;42.662;23.466;2023-10-19T11:35:22;0.30;;;0.30;;
10096;SDS011;5087;42.662;23.466;2023-10-19T11:37:51;0.33;;;0.33;;
10096;SDS011;5087;42.662;23.466;2023-10-19T11:40:24;0.20;;;0.20;;
10096;SDS011;5087;42.662;23.466;2023-10-19T11:42:52;0.20;;;0.20;;
10096;SDS011;5087;42.662;23.466;2023-10-19T11:45:21;0.20;;;0.20;;
10096;SDS011;5087;42.662;23.466;2023-10-19T11:47:50;0.20;;;0.20;;
10096;SDS011;5087;42.662;23.466;2023-10-19T11:50:17;0.20;;;0.20;;
10096;SDS011;5087;42.662;23.466;2023-10-19T11:52:45;0.20;;;0.20;;
10096;SDS011;5087;42.662;23.466;2023-10-19T11:55:13;0.20;;;0.20;;
10096;SDS011;5087;42.662;23.466;2023-10-19T11:57:43;0.20;;;0.20;;
10096;SDS011;5087;42.662;23.466;2023-10-19T12:00:10;0.20;;;0.20;;
10096;SDS011;5087;42.662;23.466;2023-10-19T12:02:48;0.20;;;0.20;;
10096;SDS011;5087;42.662;23.466;2023-10-19T12:05:15;0.20;;;0.20;;
10096;SDS011;5087;42.662;23.466;2023-10-19T12:07:42;0.20;;;0.20;;
10096;SDS011;5087;42.662;23.466;2023-10-19T12:10:11;0.20;;;0.20;;
10096;SDS011;5087;42.662;23.466;2023-10-19T12:12:38;0.20;;;0.20;;
10096;SDS011;5087;42.662;23.466;2023-10-19T12:15:11;0.20;;;0.20;;
10096;SDS011;5087;42.662;23.466;2023-10-19T12:17:38;0.20;;;0.20;;
10096;SDS011;5087;42.662;23.466;2023-10-19T12:20:06;0.20;;;0.20;;
10096;SDS011;5087;42.662;23.466;2023-10-19T12:22:34;0.20;;;0.20;;
10096;SDS011;5087;42.662;23.466;2023-10-19T12:25:04;0.20;;;0.20;;
10096;SDS011;5087;42.662;23.466;2023-10-19T12:27:32;0.20;;;0.20;;
10096;SDS011;5087;42.662;23.466;2023-10-19T12:30:02;0.30;;;0.30;;
10096;SDS011;5087;42.662;23.466;2023-10-19T12:32:43;0.20;;;0.20;;
10096;SDS011;5087;42.662;23.466;2023-10-19T12:35:12;0.20;;;0.20;;
10096;SDS011;5087;42.662;23.466;2023-10-19T12:37:45;0.20;;;0.20;;
10096;SDS011;5087;42.662;23.466;2023-10-19T12:40:16;0.20;;;0.20;;
10096;SDS011;5087;42.662;23.466;2023-10-19T12:42:54;0.30;;;0.30;;
10096;SDS011;5087;42.662;23.466;2023-10-19T12:45:23;0.20;;;0.20;;
10096;SDS011;5087;42.662;23.466;2023-10-19T12:47:53;0.20;;;0.20;;
10096;SDS011;5087;42.662;23.466;2023-10-19T12:50:25;0.20;;;0.20;;
10096;SDS011;5087;42.662;23.466;2023-10-19T12:52:52;0.20;;;0.20;;
10096;SDS011;5087;42.662;23.466;2023-10-19T12:55:22;0.10;;;0.10;;
10096;SDS011;5087;42.662;23.466;2023-10-19T12:57:52;0.10;;;0.10;;
10096;SDS011;5087;42.662;23.466;2023-10-19T13:00:22;0.20;;;0.20;;
10096;SDS011;5087;42.662;23.466;2023-10-19T13:02:56;0.20;;;0.20;;
10096;SDS011;5087;42.662;23.466;2023-10-19T13:05:26;0.20;;;0.20;;
10096;SDS011;5087;42.662;23.466;2023-10-19T13:07:54;0.10;;;0.10;;
10096;SDS011;5087;42.662;23.466;2023-10-19T13:10:29;0.20;;;0.20;;
10096;SDS011;5087;42.662;23.466;2023-10-19T13:12:59;0.10;;;0.10;;
10096;SDS011;5087;42.662;23.466;2023-10-19T13:15:29;0.10;;;0.10;;
10096;SDS011;5087;42.662;23.466;2023-10-19T13:17:58;0.20;;;0.20;;
10096;SDS011;5087;42.662;23.466;2023-10-19T13:20:26;0.20;;;0.20;;
10096;SDS011;5087;42.662;23.466;2023-10-19T13:22:59;0.20;;;0.20;;
10096;SDS011;5087;42.662;23.466;2023-10-19T13:25:28;0.13;;;0.13;;
10096;SDS011;5087;42.662;23.466;2023-10-19T13:28:12;0.20;;;0.20;;
10096;SDS011;5087;42.662;23.466;2023-10-19T13:30:40;0.10;;;0.10;;
10096;SDS011;5087;42.662;23.466;2023-10-19T13:33:10;0.20;;;0.20;;
10096;SDS011;5087;42.662;23.466;2023-10-19T13:35:39;0.20;;;0.20;;
10096;SDS011;5087;42.662;23.466;2023-10-19T13:38:07;0.20;;;0.20;;
10096;SDS011;5087;42.662;23.466;2023-10-19T13:40:45;0.10;;;0.10;;
10096;SDS011;5087;42.662;23.466;2023-10-19T13:43:16;0.10;;;0.10;;
10096;SDS011;5087;42.662;23.466;2023-10-19T13:45:47;0.10;;;0.10;;
10096;SDS011;5087;42.662;23.466;2023-10-19T13:48:19;0.10;;;0.10;;
10096;SDS011;5087;42.662;23.466;2023-10-19T13:50:47;0.10;;;0.10;;
10096;SDS011;5087;42.662;23.466;2023-10-19T13:53:18;0.10;;;0.10;;
10096;SDS011;5087;42.662;23.466;2023-10-19T13:55:46;0.10;;;0.10;;
10096;SDS011;5087;42.662;23.466;2023-10-19T13:58:13;0.10;;;0.10;;
10096;SDS011;5087;42.662;23.466;2023-10-19T14:00:41;0.10;;;0.10;;
10096;SDS011;5087;42.662;23.466;2023-10-19T14:03:10;0.10;;;0.10;;
10096;SDS011;5087;42.662;23.466;2023-10-19T14:05:40;0.10;;;0.10;;
10096;SDS011;5087;42.662;23.466;2023-10-19T14:08:13;0.20;;;0.20;;
10096;SDS011;5087;42.662;23.466;2023-10-19T14:10:41;0.10;;;0.10;;
10096;SDS011;5087;42.662;23.466;2023-10-19T14:13:08;0.10;;;0.10;;
10096;SDS011;5087;42.662;23.466;2023-10-19T14:15:37;0.20;;;0.20;;
10096;SDS011;5087;42.662;23.466;2023-10-19T14:18:05;0.20;;;0.20;;
10096;SDS011;5087;42.662;23.466;2023-10-19T14:20:33;0.17;;;0.17;;
10096;SDS011;5087;42.662;23.466;2023-10-19T14:23:05;0.20;;;0.20;;
10096;SDS011;5087;42.662;23.466;2023-10-19T14:25:36;0.20;;;0.20;;
10096;SDS011;5087;42.662;23.466;2023-10-19T14:28:04;0.20;;;0.20;;
10096;SDS011;5087;42.662;23.466;2023-10-19T14:30:33;0.17;;;0.17;;
10096;SDS011;5087;42.662;23.466;2023-10-19T14:33:01;0.10;;;0.10;;
10096;SDS011;5087;42.662;23.466;2023-10-19T14:35:29;0.10;;;0.10;;
10096;SDS011;5087;42.662;23.466;2023-10-19T14:37:57;0.20;;;0.20;;
10096;SDS011;5087;42.662;23.466;2023-10-19T14:40:28;0.20;;;0.20;;
10096;SDS011;5087;42.662;23.466;2023-10-19T14:42:58;0.20;;;0.20;;
10096;SDS011;5087;42.662;23.466;2023-10-19T14:45:27;0.20;;;0.20;;
10096;SDS011;5087;42.662;23.466;2023-10-19T14:47:58;0.20;;;0.20;;
10096;SDS011;5087;42.662;23.466;2023-10-19T14:50:29;0.20;;;0.20;;
10096;SDS011;5087;42.662;23.466;2023-10-19T14:52:57;0.20;;;0.20;;
10096;SDS011;5087;42.662;23.466;2023-10-19T14:55:24;0.20;;;0.20;;
10096;SDS011;5087;42.662;23.466;2023-10-19T14:57:53;0.20;;;0.20;;
10096;SDS011;5087;42.662;23.466;2023-10-19T15:00:26;0.20;;;0.20;;
10096;SDS011;5087;42.662;23.466;2023-10-19T15:03:00;0.20;;;0.20;;
10096;SDS011;5087;42.662;23.466;2023-10-19T15:05:32;0.20;;;0.20;;
10096;SDS011;5087;42.662;23.466;2023-10-19T15:08:01;0.20;;;0.20;;